createdAt,value
2019-05-29T00:01:20.377Z,13.88
2019-05-29T00:03:45.639Z,14.18
2019-05-29T00:06:12.655Z,14.41
2019-05-29T00:08:40.830Z,14.58
2019-05-29T00:11:08.061Z,14.47
2019-05-29T00:13:35.162Z,14.00
2019-05-29T00:16:02.232Z,13.56
2019-05-29T00:18:29.649Z,13.27
2019-05-29T00:20:56.817Z,13.10
2019-05-29T00:23:23.994Z,12.80
2019-05-29T00:25:51.203Z,12.53
2019-05-29T00:28:18.326Z,12.31
2019-05-29T00:30:45.896Z,12.15
2019-05-29T00:33:14.308Z,11.88
2019-05-29T00:35:41.776Z,11.65
2019-05-29T00:38:10.703Z,11.55
2019-05-29T00:40:39.067Z,11.58
2019-05-29T00:43:07.332Z,11.79
2019-05-29T00:45:37.274Z,11.92
2019-05-29T00:48:04.326Z,12.13
2019-05-29T00:50:31.421Z,12.06
2019-05-29T00:53:00.058Z,12.17
2019-05-29T00:55:27.307Z,12.09
2019-05-29T00:57:54.391Z,11.95
2019-05-29T01:00:21.644Z,11.99
2019-05-29T01:02:52.441Z,12.07
2019-05-29T01:05:20.180Z,12.28
2019-05-29T01:07:49.012Z,12.31
2019-05-29T01:10:16.793Z,12.22
2019-05-29T01:12:43.768Z,12.00
2019-05-29T01:15:13.332Z,11.78
2019-05-29T01:17:40.743Z,11.71
2019-05-29T01:20:07.748Z,11.55
2019-05-29T01:22:34.829Z,11.54
2019-05-29T01:25:01.921Z,11.66
2019-05-29T01:27:28.950Z,11.63
2019-05-29T01:29:56.003Z,11.79
2019-05-29T01:32:24.529Z,11.93
2019-05-29T01:34:51.693Z,11.97
2019-05-29T01:37:19.934Z,11.97
2019-05-29T01:39:48.044Z,12.07
2019-05-29T01:42:15.220Z,12.04
2019-05-29T01:44:42.358Z,11.85
2019-05-29T01:47:09.602Z,12.07
2019-05-29T01:49:38.454Z,11.93
2019-05-29T01:52:05.539Z,11.96
2019-05-29T01:54:32.644Z,12.22
2019-05-29T01:56:59.980Z,11.97
2019-05-29T01:59:28.818Z,11.67
2019-05-29T02:01:56.104Z,11.49
2019-05-29T02:04:24.203Z,11.43
2019-05-29T02:06:51.505Z,11.65
2019-05-29T02:09:18.633Z,11.62
2019-05-29T02:11:45.787Z,11.36
2019-05-29T02:14:12.829Z,11.68
2019-05-29T02:16:39.916Z,11.77
2019-05-29T02:19:09.143Z,11.75
2019-05-29T02:21:37.340Z,11.80
2019-05-29T02:24:04.509Z,11.71
2019-05-29T02:26:32.884Z,11.65
2019-05-29T02:28:59.935Z,11.54
2019-05-29T02:31:29.796Z,11.55
2019-05-29T02:33:56.834Z,11.50
2019-05-29T02:36:24.602Z,11.49
2019-05-29T02:38:52.314Z,11.51
2019-05-29T02:41:21.172Z,11.65
2019-05-29T02:43:50.194Z,11.73
2019-05-29T02:46:17.244Z,11.69
2019-05-29T02:48:44.275Z,11.79
2019-05-29T02:51:12.345Z,11.87
2019-05-29T02:53:39.671Z,12.04
2019-05-29T02:56:06.724Z,11.97
2019-05-29T02:58:33.801Z,12.13
2019-05-29T03:01:02.782Z,12.01
2019-05-29T03:03:37.998Z,11.94
2019-05-29T03:05:59.345Z,12.09
2019-05-29T03:08:27.663Z,12.08
2019-05-29T03:10:55.444Z,12.09
2019-05-29T03:13:25.468Z,12.05
2019-05-29T03:16:08.504Z,11.99
2019-05-29T03:18:23.774Z,11.94
2019-05-29T03:20:50.884Z,12.08
2019-05-29T03:23:19.885Z,11.99
2019-05-29T03:25:46.900Z,12.10
2019-05-29T03:28:15.077Z,11.99
2019-05-29T03:30:46.103Z,12.13
2019-05-29T03:33:11.765Z,12.00
2019-05-29T03:35:47.099Z,12.09
2019-05-29T03:38:07.963Z,12.09
2019-05-29T03:40:35.324Z,12.21
2019-05-29T03:43:02.715Z,12.00
2019-05-29T03:45:31.329Z,12.01
2019-05-29T03:47:58.694Z,12.17
2019-05-29T03:50:26.676Z,11.96
2019-05-29T03:52:54.774Z,11.92
2019-05-29T03:55:21.805Z,12.02
2019-05-29T03:57:48.844Z,11.98
2019-05-29T04:00:16.095Z,11.98
2019-05-29T04:02:43.143Z,12.13
2019-05-29T04:05:11.164Z,12.11
2019-05-29T04:07:38.600Z,11.93
2019-05-29T04:10:07.273Z,11.90
2019-05-29T04:12:38.076Z,11.88
2019-05-29T04:15:05.925Z,11.87
2019-05-29T04:17:35.679Z,11.94
2019-05-29T04:20:03.961Z,11.90
2019-05-29T04:22:40.440Z,11.99
2019-05-29T04:25:08.225Z,11.91
2019-05-29T04:27:38.667Z,11.95
2019-05-29T04:30:06.123Z,12.07
2019-05-29T04:32:34.192Z,11.79
2019-05-29T04:35:01.555Z,11.83
2019-05-29T04:37:30.151Z,11.87
2019-05-29T04:39:57.684Z,11.86
2019-05-29T04:42:24.973Z,11.83
2019-05-29T04:44:53.841Z,11.98
2019-05-29T04:47:21.974Z,11.87
2019-05-29T04:49:50.111Z,11.94
2019-05-29T04:52:17.176Z,12.02
2019-05-29T04:54:44.308Z,12.27
2019-05-29T04:57:11.344Z,12.27
2019-05-29T04:59:39.240Z,12.04
2019-05-29T05:02:06.460Z,12.03
2019-05-29T05:04:37.264Z,12.06
2019-05-29T05:07:04.502Z,12.14
2019-05-29T05:09:33.428Z,12.18
2019-05-29T05:12:04.157Z,12.27
2019-05-29T05:14:31.747Z,12.79
2019-05-29T05:16:59.194Z,13.16
2019-05-29T05:19:31.794Z,13.51
2019-05-29T05:21:59.168Z,13.70
2019-05-29T05:24:27.693Z,14.18
2019-05-29T05:26:54.918Z,14.24
2019-05-29T05:29:22.929Z,14.18
2019-05-29T05:31:50.181Z,13.80
2019-05-29T05:34:17.216Z,13.53
2019-05-29T05:36:50.390Z,13.80
2019-05-29T05:39:31.203Z,13.79
2019-05-29T05:41:58.282Z,13.80
2019-05-29T05:44:25.529Z,13.79
2019-05-29T05:46:52.946Z,13.79
2019-05-29T05:49:20.023Z,13.30
2019-05-29T05:51:47.074Z,13.40
2019-05-29T05:54:14.598Z,13.58
2019-05-29T05:56:42.114Z,13.41
2019-05-29T05:59:10.239Z,12.97
2019-05-29T06:01:38.402Z,13.32
2019-05-29T06:04:05.574Z,13.04
2019-05-29T06:06:33.841Z,12.59
2019-05-29T06:09:00.937Z,12.81
2019-05-29T06:11:28.151Z,13.32
2019-05-29T06:13:55.195Z,13.80
2019-05-29T06:16:22.303Z,14.67
2019-05-29T06:18:49.419Z,13.43
2019-05-29T06:21:16.497Z,13.87
2019-05-29T06:23:43.854Z,13.83
2019-05-29T06:26:12.216Z,14.73
2019-05-29T06:28:41.629Z,15.12
2019-05-29T06:31:09.061Z,14.89
2019-05-29T06:33:37.845Z,14.44
2019-05-29T06:36:05.261Z,14.75
2019-05-29T06:38:33.632Z,14.33
2019-05-29T06:41:04.041Z,14.56
2019-05-29T06:43:35.819Z,13.84
2019-05-29T06:46:03.954Z,14.39
2019-05-29T06:48:42.586Z,15.69
2019-05-29T06:51:04.043Z,14.69
2019-05-29T06:53:31.214Z,14.89
2019-05-29T06:56:01.055Z,15.44
2019-05-29T06:58:31.821Z,15.58
2019-05-29T07:01:00.455Z,16.33
2019-05-29T07:03:29.778Z,17.62
2019-05-29T07:05:58.766Z,18.49
2019-05-29T07:08:39.109Z,19.27
2019-05-29T07:11:00.740Z,19.82
2019-05-29T07:13:35.181Z,19.75
2019-05-29T07:16:02.327Z,19.06
2019-05-29T07:18:38.986Z,17.65
2019-05-29T07:21:07.745Z,18.47
2019-05-29T07:23:39.063Z,18.66
2019-05-29T07:26:11.320Z,20.08
2019-05-29T07:29:03.044Z,20.48
2019-05-29T07:31:16.548Z,21.05
2019-05-29T07:33:43.678Z,20.33
2019-05-29T07:36:11.064Z,19.08
2019-05-29T07:38:39.558Z,17.94
2019-05-29T07:41:06.943Z,17.75
2019-05-29T07:43:33.973Z,16.49
2019-05-29T07:46:01.151Z,17.23
2019-05-29T07:48:28.192Z,18.28
2019-05-29T07:51:06.586Z,18.70
2019-05-29T07:53:24.340Z,17.75
2019-05-29T07:55:51.416Z,17.74
2019-05-29T07:58:18.494Z,17.83
2019-05-29T08:01:07.680Z,18.87
2019-05-29T08:03:14.711Z,20.53
2019-05-29T08:05:46.201Z,20.91
2019-05-29T08:08:13.512Z,21.87
2019-05-29T08:10:41.746Z,22.43
2019-05-29T08:13:09.082Z,21.91
2019-05-29T08:15:51.970Z,17.53
2019-05-29T08:18:05.993Z,16.35
2019-05-29T08:20:33.052Z,17.16
2019-05-29T08:23:00.098Z,18.93
2019-05-29T08:25:27.164Z,20.24
2019-05-29T08:27:54.789Z,21.01
2019-05-29T08:30:26.309Z,21.29
2019-05-29T08:32:56.581Z,21.14
2019-05-29T08:35:23.865Z,20.41
2019-05-29T08:37:53.892Z,21.58
2019-05-29T08:40:21.316Z,22.84
2019-05-29T08:42:49.315Z,23.59
2019-05-29T08:45:16.474Z,21.74
2019-05-29T08:47:43.595Z,20.33
2019-05-29T08:50:18.309Z,19.56
2019-05-29T08:52:39.617Z,18.98
2019-05-29T08:55:07.470Z,20.34
2019-05-29T08:57:34.520Z,20.86
2019-05-29T09:00:01.719Z,21.74
2019-05-29T09:02:28.967Z,20.81
2019-05-29T09:04:56.013Z,22.42
2019-05-29T09:07:24.654Z,20.43
2019-05-29T09:09:51.713Z,20.85
2019-05-29T09:12:18.814Z,20.52
2019-05-29T09:14:45.893Z,19.25
2019-05-29T09:17:14.621Z,19.54
2019-05-29T09:19:41.892Z,20.31
2019-05-29T09:22:09.227Z,20.99
2019-05-29T09:24:36.377Z,21.58
2019-05-29T09:27:03.473Z,22.73
2019-05-29T09:29:30.637Z,22.08
2019-05-29T09:31:57.663Z,21.75
2019-05-29T09:34:24.770Z,21.14
2019-05-29T09:36:55.483Z,21.41
2019-05-29T09:39:21.093Z,21.57
2019-05-29T09:41:48.287Z,21.80
2019-05-29T09:44:31.167Z,22.35
2019-05-29T09:46:45.660Z,21.48
2019-05-29T09:49:13.057Z,22.23
2019-05-29T09:51:40.310Z,22.60
2019-05-29T09:54:07.498Z,22.65
2019-05-29T09:56:34.519Z,23.62
2019-05-29T09:59:01.831Z,22.91
2019-05-29T10:01:30.548Z,22.14
2019-05-29T10:04:00.044Z,22.54
2019-05-29T10:06:28.362Z,23.41
2019-05-29T10:08:56.223Z,23.04
2019-05-29T10:11:23.929Z,22.68
2019-05-29T10:13:50.982Z,21.54
2019-05-29T10:16:18.009Z,21.03
2019-05-29T10:18:45.280Z,21.48
2019-05-29T10:21:13.471Z,21.99
2019-05-29T10:23:40.598Z,22.62
2019-05-29T10:26:07.865Z,23.95
2019-05-29T10:28:49.961Z,23.23
2019-05-29T10:31:04.880Z,23.25
2019-05-29T10:33:32.185Z,23.35
2019-05-29T10:36:03.447Z,23.97
2019-05-29T10:38:28.373Z,23.62
2019-05-29T10:41:05.840Z,22.79
2019-05-29T10:43:34.169Z,23.00
2019-05-29T10:45:55.272Z,20.83
2019-05-29T10:48:22.626Z,22.98
2019-05-29T10:50:52.165Z,23.30
2019-05-29T10:53:20.523Z,22.92
2019-05-29T10:55:48.597Z,23.43
2019-05-29T10:58:15.909Z,22.67
2019-05-29T11:00:45.414Z,21.87
2019-05-29T11:03:12.629Z,21.51
2019-05-29T11:05:39.695Z,22.48
2019-05-29T11:08:06.733Z,22.27
2019-05-29T11:10:33.796Z,22.48
2019-05-29T11:13:00.891Z,22.77
2019-05-29T11:15:27.931Z,20.98
2019-05-29T11:17:55.396Z,21.57
2019-05-29T11:20:22.642Z,24.10
2019-05-29T11:22:49.772Z,24.78
2019-05-29T11:25:23.586Z,23.81
2019-05-29T11:27:50.501Z,26.35
2019-05-29T11:30:17.951Z,23.13
2019-05-29T11:32:47.513Z,21.99
2019-05-29T11:35:14.156Z,21.70
2019-05-29T11:37:41.214Z,22.71
2019-05-29T11:40:08.578Z,22.13
2019-05-29T11:42:35.916Z,21.28
2019-05-29T11:45:05.006Z,21.80
2019-05-29T11:47:34.056Z,21.63
2019-05-29T11:50:16.617Z,21.02
2019-05-29T11:52:42.952Z,21.05
2019-05-29T11:55:08.114Z,22.62
2019-05-29T11:57:39.748Z,25.85
2019-05-29T12:00:19.407Z,31.13
2019-05-29T12:02:39.813Z,31.74
2019-05-29T12:05:09.213Z,29.43
2019-05-29T12:07:36.284Z,25.42
2019-05-29T12:10:05.617Z,28.92
2019-05-29T12:12:34.135Z,32.77
2019-05-29T12:15:10.957Z,34.74
2019-05-29T12:17:32.517Z,38.66
2019-05-29T12:20:01.187Z,40.36
2019-05-29T12:22:28.746Z,42.71
2019-05-29T12:24:56.534Z,37.48
2019-05-29T12:27:25.297Z,33.53
2019-05-29T12:29:52.673Z,31.37
2019-05-29T12:32:19.764Z,27.73
2019-05-29T12:34:53.617Z,25.69
2019-05-29T12:37:17.530Z,24.32
2019-05-29T12:39:44.616Z,23.05
2019-05-29T12:42:11.702Z,21.08
2019-05-29T12:44:38.777Z,20.19
2019-05-29T12:47:06.536Z,19.63
2019-05-29T12:49:33.899Z,20.27
2019-05-29T12:52:02.362Z,20.82
2019-05-29T12:54:30.236Z,22.49
2019-05-29T12:56:57.861Z,25.08
2019-05-29T12:59:25.864Z,29.15
2019-05-29T13:01:58.505Z,34.35
2019-05-29T13:05:02.536Z,35.68
2019-05-29T13:07:04.575Z,35.26
2019-05-29T13:09:31.853Z,33.63
2019-05-29T13:11:58.909Z,36.18
2019-05-29T13:14:27.755Z,39.28
2019-05-29T13:16:54.998Z,40.94
2019-05-29T13:19:22.035Z,39.55
2019-05-29T13:21:49.203Z,39.29
2019-05-29T13:24:16.381Z,35.01
2019-05-29T13:26:44.337Z,36.75
2019-05-29T13:29:11.388Z,38.76
2019-05-29T13:31:38.574Z,29.25
2019-05-29T13:34:09.200Z,28.97
2019-05-29T13:36:36.327Z,31.13
2019-05-29T13:39:07.173Z,35.02
2019-05-29T13:41:34.340Z,38.50
2019-05-29T13:44:02.769Z,41.71
2019-05-29T13:46:31.358Z,42.93
2019-05-29T13:48:58.906Z,45.27
2019-05-29T13:51:26.449Z,47.98
2019-05-29T13:54:04.782Z,41.64
2019-05-29T13:56:24.363Z,44.78
2019-05-29T13:58:51.562Z,39.93
2019-05-29T14:01:18.652Z,34.98
2019-05-29T14:03:50.205Z,33.36
2019-05-29T14:06:14.708Z,30.66
2019-05-29T14:08:41.803Z,25.47
2019-05-29T14:11:09.163Z,26.33
2019-05-29T14:13:42.544Z,34.11
2019-05-29T14:16:09.720Z,35.68
2019-05-29T14:18:47.448Z,31.52
2019-05-29T14:21:14.640Z,29.33
2019-05-29T14:23:42.188Z,29.37
2019-05-29T14:26:10.615Z,26.92
2019-05-29T14:28:38.742Z,27.99
2019-05-29T14:31:06.027Z,28.72
2019-05-29T14:33:35.140Z,32.57
2019-05-29T14:36:03.434Z,34.31
2019-05-29T14:38:30.797Z,33.59
2019-05-29T14:40:57.882Z,30.27
2019-05-29T14:43:28.080Z,27.06
2019-05-29T14:45:57.029Z,26.29
2019-05-29T14:48:24.454Z,26.31
2019-05-29T14:50:51.558Z,25.67
2019-05-29T14:53:18.620Z,26.43
2019-05-29T14:55:52.568Z,26.40
2019-05-29T14:58:20.241Z,27.04
2019-05-29T15:00:47.332Z,28.36
2019-05-29T15:03:14.419Z,26.71
2019-05-29T15:05:44.224Z,24.66
2019-05-29T15:08:14.176Z,24.43
2019-05-29T15:10:41.361Z,24.65
2019-05-29T15:13:09.171Z,24.63
2019-05-29T15:15:37.378Z,25.95
2019-05-29T15:18:06.872Z,29.61
2019-05-29T15:20:34.175Z,31.10
2019-05-29T15:23:02.521Z,32.45
2019-05-29T15:25:31.332Z,30.27
2019-05-29T15:27:58.423Z,31.88
2019-05-29T15:30:25.462Z,32.41
2019-05-29T15:32:52.605Z,33.42
2019-05-29T15:35:20.218Z,36.44
2019-05-29T15:37:47.544Z,37.40
2019-05-29T15:40:15.094Z,36.75
2019-05-29T15:42:42.140Z,37.24
2019-05-29T15:45:11.894Z,39.23
2019-05-29T15:47:41.210Z,41.31
2019-05-29T15:50:11.379Z,40.07
2019-05-29T15:52:38.723Z,32.75
2019-05-29T15:55:22.012Z,28.12
2019-05-29T15:57:36.848Z,26.40
2019-05-29T16:00:05.050Z,25.77
2019-05-29T16:02:32.630Z,25.23
2019-05-29T16:04:59.759Z,25.12
2019-05-29T16:07:27.609Z,25.05
2019-05-29T16:09:54.646Z,25.25
2019-05-29T16:12:21.724Z,26.08
2019-05-29T16:14:50.643Z,27.08
2019-05-29T16:17:17.891Z,28.00
2019-05-29T16:19:45.117Z,30.04
2019-05-29T16:22:12.497Z,35.67
2019-05-29T16:24:39.662Z,38.70
2019-05-29T16:27:10.616Z,37.28
2019-05-29T16:29:38.829Z,34.92
2019-05-29T16:32:05.953Z,34.66
2019-05-29T16:34:33.096Z,33.05
2019-05-29T16:37:00.304Z,30.01
2019-05-29T16:39:27.430Z,30.27
2019-05-29T16:41:56.362Z,30.16
2019-05-29T16:44:29.215Z,29.58
2019-05-29T16:46:52.789Z,30.91
2019-05-29T16:49:21.267Z,32.41
2019-05-29T16:51:48.940Z,31.97
2019-05-29T16:54:17.197Z,30.61
2019-05-29T16:56:44.367Z,32.08
2019-05-29T16:59:11.436Z,34.32
2019-05-29T17:01:38.483Z,36.06
2019-05-29T17:04:05.589Z,32.75
2019-05-29T17:06:32.666Z,31.39
2019-05-29T17:09:01.545Z,32.55
2019-05-29T17:11:31.999Z,32.60
2019-05-29T17:14:08.598Z,33.01
2019-05-29T17:16:54.614Z,32.84
2019-05-29T17:19:23.161Z,32.91
2019-05-29T17:21:51.590Z,32.69
2019-05-29T17:24:18.762Z,30.30
2019-05-29T17:26:45.943Z,27.96
2019-05-29T17:29:13.000Z,27.74
2019-05-29T17:31:40.577Z,26.76
2019-05-29T17:34:08.699Z,25.16
2019-05-29T17:36:35.865Z,23.45
2019-05-29T17:39:05.969Z,22.54
2019-05-29T17:41:33.429Z,21.86
2019-05-29T17:44:00.534Z,22.65
2019-05-29T17:46:27.637Z,23.88
2019-05-29T17:48:56.393Z,24.13
2019-05-29T17:51:24.163Z,24.12
2019-05-29T17:53:51.357Z,24.78
2019-05-29T17:56:31.754Z,25.44
2019-05-29T17:58:50.902Z,26.24
2019-05-29T18:01:18.263Z,26.61
2019-05-29T18:03:45.534Z,27.06
2019-05-29T18:06:12.677Z,27.41
2019-05-29T18:08:41.659Z,27.58
2019-05-29T18:11:10.485Z,27.59
2019-05-29T18:13:38.993Z,27.64
2019-05-29T18:16:06.532Z,26.70
2019-05-29T18:21:14.900Z,26.91
2019-05-29T18:23:42.002Z,26.90
2019-05-29T18:26:09.260Z,26.54
2019-05-29T18:28:37.509Z,25.95
2019-05-29T18:31:04.556Z,24.54
2019-05-29T18:33:33.222Z,23.45
2019-05-29T18:36:00.776Z,22.26
2019-05-29T18:38:30.815Z,21.89
2019-05-29T18:40:57.928Z,21.97
2019-05-29T18:43:25.016Z,22.22
2019-05-29T18:45:52.433Z,22.40
2019-05-29T18:48:19.508Z,22.65
2019-05-29T18:50:46.809Z,22.64
2019-05-29T18:53:14.494Z,21.80
2019-05-29T18:55:41.889Z,21.12
2019-05-29T18:58:08.993Z,20.44
2019-05-29T19:00:37.361Z,19.94
2019-05-29T19:03:05.183Z,19.39
2019-05-29T19:05:32.554Z,19.06
2019-05-29T19:07:59.653Z,19.01
2019-05-29T19:10:27.753Z,18.85
2019-05-29T19:12:55.341Z,18.74
2019-05-29T19:15:23.754Z,18.49
2019-05-29T19:17:51.253Z,18.26
2019-05-29T19:20:18.852Z,18.08
2019-05-29T19:22:45.935Z,17.85
2019-05-29T19:25:15.962Z,17.53
2019-05-29T19:27:47.228Z,17.51
2019-05-29T19:30:15.905Z,17.33
2019-05-29T19:32:43.220Z,17.17
2019-05-29T19:35:12.903Z,17.12
2019-05-29T19:37:41.985Z,17.07
2019-05-29T19:40:09.575Z,17.09
2019-05-29T19:42:37.606Z,17.08
2019-05-29T19:45:16.567Z,17.12
2019-05-29T19:48:08.635Z,16.86
2019-05-29T19:50:41.623Z,16.81
2019-05-29T19:53:09.170Z,16.79
2019-05-29T19:55:39.449Z,16.66
2019-05-29T19:58:08.477Z,16.58
2019-05-29T20:00:56.493Z,16.51
2019-05-29T20:03:23.607Z,16.43
2019-05-29T20:05:52.970Z,16.38
2019-05-29T20:08:24.177Z,16.44
2019-05-29T20:10:51.601Z,16.38
2019-05-29T20:13:22.426Z,16.40
2019-05-29T20:15:49.742Z,16.40
2019-05-29T20:18:16.923Z,16.45
2019-05-29T20:20:47.009Z,16.27
2019-05-29T20:23:14.431Z,16.40
2019-05-29T20:25:41.895Z,16.49
2019-05-29T20:28:11.762Z,16.53
2019-05-29T20:30:42.511Z,16.69
2019-05-29T20:33:10.068Z,16.42
2019-05-29T20:35:37.330Z,16.27
2019-05-29T20:38:07.539Z,16.14
2019-05-29T20:40:35.166Z,16.00
2019-05-29T20:43:02.408Z,16.13
2019-05-29T20:45:29.493Z,16.06
2019-05-29T20:47:56.540Z,15.86
2019-05-29T20:50:24.777Z,15.88
2019-05-29T20:52:53.042Z,15.74
2019-05-29T20:55:20.112Z,15.60
2019-05-29T20:57:57.201Z,15.54
2019-05-29T21:00:25.860Z,15.57
2019-05-29T21:02:53.078Z,15.51
2019-05-29T21:05:21.740Z,15.48
2019-05-29T21:07:48.838Z,15.51
2019-05-29T21:10:16.000Z,15.43
2019-05-29T21:12:47.454Z,15.26
2019-05-29T21:15:15.887Z,15.26
2019-05-29T21:17:49.680Z,15.21
2019-05-29T21:20:16.819Z,15.23
2019-05-29T21:22:44.958Z,15.26
2019-05-29T21:25:17.090Z,15.29
2019-05-29T21:27:45.397Z,15.23
2019-05-29T21:30:25.311Z,15.05
2019-05-29T21:32:52.938Z,14.84
2019-05-29T21:35:20.020Z,14.74
2019-05-29T21:37:47.494Z,14.68
2019-05-29T21:40:16.827Z,14.60
2019-05-29T21:42:47.004Z,14.53
2019-05-29T21:45:14.850Z,14.28
2019-05-29T21:47:43.578Z,14.27
2019-05-29T21:50:11.211Z,14.24
2019-05-29T21:52:39.469Z,14.12
2019-05-29T21:55:09.967Z,14.19
2019-05-29T21:57:43.901Z,14.11
2019-05-29T22:00:13.805Z,14.04
2019-05-29T22:02:44.507Z,13.94
2019-05-29T22:05:26.432Z,13.91
2019-05-29T22:08:02.233Z,14.05
2019-05-29T22:10:29.958Z,14.09
2019-05-29T22:12:58.550Z,14.03
2019-05-29T22:15:25.940Z,13.98
2019-05-29T22:17:53.200Z,14.06
2019-05-29T22:20:20.243Z,14.00
2019-05-29T22:22:47.330Z,13.99
2019-05-29T22:25:14.713Z,14.05
2019-05-29T22:27:42.876Z,14.12
2019-05-29T22:30:10.055Z,14.08
2019-05-29T22:32:37.118Z,13.99
2019-05-29T22:35:04.534Z,14.02
2019-05-29T22:37:32.116Z,14.02
2019-05-29T22:39:59.632Z,13.94
2019-05-29T22:42:28.655Z,13.92
2019-05-29T22:44:55.920Z,13.98
2019-05-29T22:47:23.169Z,14.02
2019-05-29T22:49:51.572Z,14.06
2019-05-29T22:52:18.903Z,13.99
2019-05-29T22:54:45.926Z,14.03
2019-05-29T22:57:12.997Z,14.08
2019-05-29T22:59:40.229Z,14.01
2019-05-29T23:02:09.864Z,13.90
2019-05-29T23:04:37.020Z,13.82
2019-05-29T23:07:05.248Z,13.94
2019-05-29T23:09:32.261Z,13.92
2019-05-29T23:12:00.490Z,13.81
2019-05-29T23:14:27.611Z,13.83
2019-05-29T23:16:54.678Z,13.67
2019-05-29T23:19:21.848Z,13.66
2019-05-29T23:21:49.517Z,13.71
2019-05-29T23:24:17.691Z,13.69
2019-05-29T23:26:44.861Z,13.66
2019-05-29T23:29:11.924Z,13.48
2019-05-29T23:31:39.042Z,13.28
2019-05-29T23:34:06.101Z,13.25
2019-05-29T23:36:35.258Z,13.27
2019-05-29T23:39:03.984Z,13.15
2019-05-29T23:41:31.038Z,12.97
2019-05-29T23:43:59.306Z,12.82
2019-05-29T23:46:26.606Z,12.71
2019-05-29T23:48:53.654Z,12.60
2019-05-29T23:51:20.737Z,12.46
2019-05-29T23:53:49.980Z,12.28
2019-05-29T23:56:17.301Z,12.20
2019-05-29T23:58:44.498Z,12.18
